Decoded Metar for UUBW ( in ) (IATA:) | Meteo·Mobile Aviation Weather
aviador You're here:

UUBW Decoded Metar

in
Report Time2018-12-16 10:30:00
UTC Time2018-12-16 11:00:45
Flight Rules mvfr MVFR
Wind120° at 2 kt
W.Rank120° ranks 5
Current wind is below 120° avg. (7.2)
Visibility8000 m
Phenomena:Light Snow
Clouds:Scattered 007 Hf
Broken 020 Hf
Expected CloudBase > 400 ft AGL from Temp-Dew spread
Ceiling2,000 ft
Temp-11°C
Dew Point-12°C (92% RH)
AAT-14.9°C
QNH1038 hPa
Raw Report
METAR UUBW 161030Z 12001MPS 8000 -SN SCT007 BKN020 M11/M12 Q1038
R30/810250 NOSIG=

Extra information for UUBW:More info

Social comments